createdAt,value
2019-06-27T00:00:12.140Z,18.65
2019-06-27T00:05:05.219Z,18.85
2019-06-27T00:09:57.473Z,19.12
2019-06-27T00:14:50.124Z,19.48
2019-06-27T00:19:42.691Z,20.37
2019-06-27T00:24:35.368Z,19.87
2019-06-27T00:29:27.927Z,20.43
2019-06-27T00:34:20.622Z,20.23
2019-06-27T00:39:13.550Z,21.10
2019-06-27T00:44:05.735Z,20.57
2019-06-27T00:48:58.162Z,20.17
2019-06-27T00:53:50.728Z,20.35
2019-06-27T00:58:43.010Z,21.30
2019-06-27T01:03:35.738Z,19.70
2019-06-27T01:08:28.374Z,21.50
2019-06-27T01:13:21.274Z,20.92
2019-06-27T01:18:13.969Z,21.07
2019-06-27T01:23:06.750Z,21.40
2019-06-27T01:27:59.495Z,21.60
2019-06-27T01:32:52.245Z,21.52
2019-06-27T01:37:44.681Z,22.10
2019-06-27T01:42:37.339Z,21.50
2019-06-27T01:47:29.598Z,20.10
2019-06-27T01:52:22.470Z,20.05
2019-06-27T01:57:14.964Z,21.60
2019-06-27T02:02:08.029Z,21.12
2019-06-27T02:07:03.629Z,20.62
2019-06-27T02:11:56.347Z,20.77
2019-06-27T02:16:48.783Z,21.95
2019-06-27T02:21:41.520Z,21.60
2019-06-27T02:26:34.172Z,21.48
2019-06-27T02:31:26.837Z,22.82
2019-06-27T02:36:19.284Z,22.30
2019-06-27T02:41:12.044Z,21.77
2019-06-27T02:46:07.835Z,23.57
2019-06-27T02:51:00.646Z,21.90
2019-06-27T02:55:53.456Z,21.45
2019-06-27T03:00:46.572Z,22.17
2019-06-27T03:05:38.759Z,21.52
2019-06-27T03:10:31.628Z,26.87
2019-06-27T03:15:24.321Z,22.83
2019-06-27T03:20:17.087Z,24.32
2019-06-27T03:25:09.830Z,23.47
2019-06-27T03:30:02.291Z,23.38
2019-06-27T03:34:54.700Z,23.52
2019-06-27T03:39:47.423Z,23.15
2019-06-27T03:44:39.964Z,23.50
2019-06-27T03:49:32.725Z,25.25
2019-06-27T03:54:25.229Z,24.02
2019-06-27T03:59:17.992Z,24.40
2019-06-27T04:04:11.187Z,24.45
2019-06-27T04:09:04.711Z,25.70
2019-06-27T04:13:57.477Z,25.05
2019-06-27T04:18:50.276Z,25.55
2019-06-27T04:23:43.029Z,24.60
2019-06-27T04:28:35.740Z,24.77
2019-06-27T04:33:28.523Z,23.90
2019-06-27T04:38:21.312Z,24.75
2019-06-27T04:43:14.350Z,23.47
2019-06-27T04:48:06.805Z,24.27
2019-06-27T04:52:59.686Z,24.67
2019-06-27T04:57:51.953Z,24.52
2019-06-27T05:02:44.837Z,22.58
2019-06-27T05:07:37.245Z,21.82
2019-06-27T05:12:29.750Z,20.62
2019-06-27T05:17:22.279Z,20.48
2019-06-27T05:22:14.768Z,19.80
2019-06-27T05:27:07.224Z,21.73
2019-06-27T05:32:00.114Z,20.02
2019-06-27T05:36:53.167Z,19.30
2019-06-27T05:41:45.121Z,17.95
2019-06-27T05:46:38.042Z,18.27
2019-06-27T05:51:30.484Z,18.00
2019-06-27T05:56:23.380Z,17.53
2019-06-27T06:01:16.812Z,17.07
2019-06-27T06:06:09.279Z,18.30
2019-06-27T06:11:02.259Z,17.07
2019-06-27T06:15:54.784Z,16.62
2019-06-27T06:20:47.381Z,17.13
2019-06-27T06:25:39.882Z,16.65
2019-06-27T06:30:43.970Z,17.48
2019-06-27T06:35:27.203Z,16.30
2019-06-27T06:40:20.031Z,15.55
2019-06-27T06:45:12.647Z,15.50
2019-06-27T06:50:05.991Z,16.32
2019-06-27T06:54:58.730Z,15.63
2019-06-27T06:59:52.108Z,15.68
2019-06-27T07:04:44.519Z,14.45
2019-06-27T07:09:37.045Z,14.43
2019-06-27T07:14:29.863Z,15.00
2019-06-27T07:19:22.319Z,14.35
2019-06-27T07:24:14.992Z,14.78
2019-06-27T07:29:07.799Z,14.65
2019-06-27T07:34:00.556Z,14.63
2019-06-27T07:38:52.993Z,13.28
2019-06-27T07:43:45.156Z,13.48
2019-06-27T07:48:37.852Z,15.43
2019-06-27T07:53:30.549Z,12.73
2019-06-27T07:58:23.252Z,13.00
2019-06-27T08:03:16.193Z,12.18
2019-06-27T08:08:09.067Z,12.10
2019-06-27T08:13:01.663Z,11.40
2019-06-27T08:17:53.791Z,11.80
2019-06-27T08:22:46.409Z,19.43
2019-06-27T08:27:39.095Z,10.98
2019-06-27T08:32:31.653Z,11.95
2019-06-27T08:37:24.680Z,11.08
2019-06-27T08:42:17.531Z,11.67
2019-06-27T08:47:09.899Z,9.38
2019-06-27T08:52:02.746Z,9.95
2019-06-27T08:56:55.573Z,9.30
2019-06-27T09:01:48.630Z,9.33
2019-06-27T09:06:40.990Z,11.65
2019-06-27T09:11:37.785Z,9.53
2019-06-27T09:16:28.084Z,9.48
2019-06-27T09:21:20.913Z,12.20
2019-06-27T09:26:13.244Z,9.63
2019-06-27T09:31:05.930Z,7.22
2019-06-27T09:35:58.378Z,11.43
2019-06-27T09:40:51.083Z,7.00
2019-06-27T09:45:43.426Z,7.80
2019-06-27T09:50:35.941Z,7.47
2019-06-27T09:55:28.736Z,7.70
2019-06-27T10:00:22.662Z,5.90
2019-06-27T10:05:15.343Z,7.15
2019-06-27T10:10:08.191Z,7.37
2019-06-27T10:15:00.870Z,5.10
2019-06-27T10:19:53.419Z,8.83
2019-06-27T10:24:45.965Z,6.28
2019-06-27T10:29:38.878Z,5.42
2019-06-27T10:34:31.652Z,5.72
2019-06-27T10:39:24.111Z,6.65
2019-06-27T10:44:16.851Z,6.65
2019-06-27T10:49:09.619Z,6.45
2019-06-27T10:54:02.606Z,5.40
2019-06-27T10:58:55.422Z,6.55
2019-06-27T11:03:48.146Z,9.43
2019-06-27T11:08:40.592Z,5.10
2019-06-27T11:13:33.632Z,4.83
2019-06-27T11:18:26.222Z,7.67
2019-06-27T11:23:18.671Z,5.37
2019-06-27T11:28:11.379Z,6.15
2019-06-27T11:33:04.140Z,6.50
2019-06-27T11:37:56.376Z,5.92
2019-06-27T11:42:48.908Z,4.87
2019-06-27T11:47:41.601Z,6.45
2019-06-27T11:52:33.995Z,7.50
2019-06-27T11:57:26.463Z,4.95
2019-06-27T12:02:19.200Z,6.17
2019-06-27T12:07:11.848Z,6.47
2019-06-27T12:12:04.307Z,7.42
2019-06-27T12:16:56.750Z,6.03
2019-06-27T12:21:49.276Z,5.95
2019-06-27T12:26:41.702Z,14.15
2019-06-27T12:31:34.309Z,10.08
2019-06-27T12:36:26.724Z,8.40
2019-06-27T12:41:19.411Z,7.12
2019-06-27T12:46:12.652Z,9.57
2019-06-27T12:51:06.008Z,6.90
2019-06-27T12:55:58.493Z,7.58
2019-06-27T13:00:51.483Z,7.03
2019-06-27T13:05:43.883Z,9.15
2019-06-27T13:10:37.635Z,6.67
2019-06-27T13:15:30.224Z,8.50
2019-06-27T13:20:23.158Z,10.80
2019-06-27T13:25:15.342Z,8.73
2019-06-27T13:30:08.630Z,7.03
2019-06-27T13:35:01.037Z,9.05
2019-06-27T13:39:53.668Z,9.25
2019-06-27T13:44:46.001Z,7.35
2019-06-27T13:49:38.635Z,11.25
2019-06-27T13:54:31.367Z,6.00
2019-06-27T13:59:23.399Z,6.10
2019-06-27T14:04:16.099Z,10.10
2019-06-27T14:09:08.209Z,5.83
2019-06-27T14:14:00.976Z,7.25
2019-06-27T14:18:53.465Z,5.78
2019-06-27T14:23:46.311Z,7.33
2019-06-27T14:28:39.161Z,6.33
2019-06-27T14:33:31.793Z,8.10
2019-06-27T14:38:24.384Z,6.10
2019-06-27T14:43:17.095Z,10.48
2019-06-27T14:48:09.390Z,7.72
2019-06-27T14:53:01.949Z,5.95
2019-06-27T14:57:55.148Z,6.00
2019-06-27T15:02:47.581Z,5.67
2019-06-27T15:07:40.647Z,5.62
2019-06-27T15:12:35.732Z,8.08
2019-06-27T15:17:27.048Z,5.67
2019-06-27T15:22:19.867Z,11.70
2019-06-27T15:27:12.736Z,8.30
2019-06-27T15:32:05.664Z,5.67
2019-06-27T15:36:58.179Z,6.65
2019-06-27T15:41:50.655Z,5.27
2019-06-27T15:46:43.304Z,8.35
2019-06-27T15:51:35.838Z,5.47
2019-06-27T15:56:28.656Z,4.50
2019-06-27T16:01:21.135Z,4.92
2019-06-27T16:06:15.146Z,5.83
2019-06-27T16:11:07.787Z,5.97
2019-06-27T16:16:00.323Z,5.00
2019-06-27T16:20:52.969Z,6.62
2019-06-27T16:25:45.431Z,6.45
2019-06-27T16:30:37.820Z,4.47
2019-06-27T16:35:30.843Z,3.62
2019-06-27T16:40:23.674Z,3.30
2019-06-27T16:45:16.679Z,4.25
2019-06-27T16:50:10.249Z,3.20
2019-06-27T16:55:02.815Z,5.90
2019-06-27T16:59:55.721Z,3.62
2019-06-27T17:04:48.505Z,3.77
2019-06-27T17:09:40.885Z,3.85
2019-06-27T17:14:33.596Z,4.28
2019-06-27T17:19:26.802Z,2.52
2019-06-27T17:24:20.697Z,4.53
2019-06-27T17:29:13.122Z,1.92
2019-06-27T17:34:05.383Z,2.85
2019-06-27T17:38:58.177Z,2.65
2019-06-27T17:43:50.609Z,2.60
2019-06-27T17:48:42.999Z,3.10
2019-06-27T17:53:35.100Z,2.30
2019-06-27T17:58:27.931Z,2.35
2019-06-27T18:03:20.110Z,4.87
2019-06-27T18:08:12.839Z,2.10
2019-06-27T18:13:05.700Z,2.33
2019-06-27T18:17:58.147Z,3.10
2019-06-27T18:22:50.991Z,1.95
2019-06-27T18:27:43.248Z,4.50
2019-06-27T18:32:35.645Z,5.00
2019-06-27T18:37:30.051Z,4.83
2019-06-27T18:42:22.037Z,4.03
2019-06-27T18:47:14.988Z,2.75
2019-06-27T18:52:08.096Z,5.60
2019-06-27T18:57:00.278Z,4.35
2019-06-27T19:01:52.777Z,2.75
2019-06-27T19:06:45.582Z,3.90
2019-06-27T19:11:38.265Z,3.77
2019-06-27T19:16:30.808Z,6.42
2019-06-27T19:21:25.097Z,6.07
2019-06-27T19:26:17.564Z,3.42
2019-06-27T19:31:10.119Z,2.90
2019-06-27T19:36:03.503Z,4.75
2019-06-27T19:40:55.938Z,3.27
2019-06-27T19:45:48.476Z,7.20
2019-06-27T19:50:40.909Z,4.10
2019-06-27T19:55:33.407Z,5.42
2019-06-27T20:00:26.453Z,2.62
2019-06-27T20:05:19.049Z,5.97
2019-06-27T20:10:12.202Z,6.87
2019-06-27T20:15:05.451Z,4.63
2019-06-27T20:19:57.900Z,3.47
2019-06-27T20:24:50.811Z,3.17
2019-06-27T20:29:43.333Z,5.28
2019-06-27T20:34:39.373Z,2.45
2019-06-27T20:39:30.787Z,5.83
2019-06-27T20:44:25.449Z,7.47
2019-06-27T20:49:18.121Z,2.72
2019-06-27T20:54:12.393Z,3.45
2019-06-27T20:59:04.675Z,4.78
2019-06-27T21:03:58.609Z,5.37
2019-06-27T21:08:51.984Z,6.08
2019-06-27T21:13:44.330Z,3.80
2019-06-27T21:18:36.957Z,4.08
2019-06-27T21:23:29.789Z,5.50
2019-06-27T21:28:22.848Z,5.72
2019-06-27T21:33:15.240Z,5.12
2019-06-27T21:38:08.371Z,5.25
2019-06-27T21:43:02.475Z,5.08
2019-06-27T21:47:55.319Z,8.48
2019-06-27T21:52:47.795Z,4.45
2019-06-27T21:57:40.094Z,6.83
2019-06-27T22:02:33.449Z,4.70
2019-06-27T22:07:26.232Z,5.72
2019-06-27T22:12:18.802Z,3.72
2019-06-27T22:17:11.621Z,5.22
2019-06-27T22:22:04.128Z,4.00
2019-06-27T22:26:56.891Z,6.15
2019-06-27T22:31:49.408Z,4.80
2019-06-27T22:36:42.136Z,5.83
2019-06-27T22:41:52.761Z,6.40
2019-06-27T22:47:04.014Z,4.33
2019-06-27T22:52:14.947Z,5.92
2019-06-27T22:57:07.807Z,4.92
2019-06-27T23:02:00.637Z,4.95
2019-06-27T23:06:53.278Z,4.78
2019-06-27T23:11:45.847Z,5.22
2019-06-27T23:16:38.193Z,4.67
2019-06-27T23:21:30.714Z,5.95
2019-06-27T23:26:23.450Z,5.50
2019-06-27T23:31:16.479Z,4.20
2019-06-27T23:36:09.039Z,4.62
2019-06-27T23:41:01.698Z,5.83
2019-06-27T23:45:54.331Z,4.58
2019-06-27T23:50:46.893Z,3.33
2019-06-27T23:55:39.345Z,8.28
